Time;durP1;ratioP1;P1;durP2;ratioP2;P2;SDS_P1;SDS_P2;PMS_P1;PMS_P2;Temp;Humidity;BMP_temperature;BMP_pressure;BME280_temperature;BME280_humidity;BME280_pressure;Samples;Min_cycle;Max_cycle;Signal;HPM_P1;HPM_P2
2022/12/13 00:01:44;;;;;;;;;;;15.30;50.30;;;;;;5036008;28;20210;-89
2022/12/13 00:04:10;;;;;;;;;;;15.30;50.30;;;;;;5053678;28;20267;-89
2022/12/13 00:06:35;;;;;;;;;;;15.30;50.30;;;;;;5053666;28;19919;-89
2022/12/13 00:09:02;;;;;;;;;;;15.30;50.20;;;;;;5033954;28;19909;-89
2022/12/13 00:11:27;;;;;;;;;;;15.30;50.20;;;;;;5034632;28;20127;-89
2022/12/13 00:13:56;;;;;;;;;;;15.30;50.20;;;;;;5033444;28;20124;-89
2022/12/13 00:16:22;;;;;;;;;;;15.30;50.20;;;;;;5035173;28;20015;-89
2022/12/13 00:18:49;;;;;;;;;;;15.30;50.20;;;;;;5051967;28;20242;-89
2022/12/13 00:21:16;;;;;;;;;;;15.30;50.20;;;;;;5037786;28;19916;-89
2022/12/13 00:23:45;;;;;;;;;;;15.30;50.30;;;;;;5054132;28;19909;-89
2022/12/13 00:26:15;;;;;;;;;;;15.20;50.20;;;;;;5037343;28;20019;-89
2022/12/13 00:28:46;;;;;;;;;;;15.20;50.20;;;;;;5037065;28;19975;-89
2022/12/13 00:31:12;;;;;;;;;;;15.20;50.20;;;;;;5037295;28;19936;-89
2022/12/13 00:33:40;;;;;;;;;;;15.20;50.20;;;;;;5036900;28;20267;-89
2022/12/13 00:36:09;;;;;;;;;;;15.20;50.20;;;;;;5036791;28;19913;-89
2022/12/13 00:38:38;;;;;;;;;;;15.10;50.20;;;;;;5035102;28;19989;-89
2022/12/13 00:41:14;;;;;;;;;;;15.10;50.20;;;;;;5052479;28;20383;-89
2022/12/13 00:43:40;;;;;;;;;;;15.10;50.30;;;;;;5052323;28;19909;-89
2022/12/13 00:46:06;;;;;;;;;;;15.00;50.20;;;;;;5052832;28;19916;-89
2022/12/13 00:48:32;;;;;;;;;;;15.10;50.30;;;;;;5036214;28;19909;-89
2022/12/13 00:50:57;;;;;;;;;;;15.00;50.30;;;;;;5038063;28;19920;-89
2022/12/13 00:53:23;;;;;;;;;;;15.00;50.30;;;;;;5054106;28;19917;-89
2022/12/13 00:55:48;;;;;;;;;;;14.90;50.30;;;;;;5053926;28;20118;-89
2022/12/13 00:58:14;;;;;;;;;;;14.90;50.40;;;;;;5038557;28;19971;-89
2022/12/13 01:00:42;;;;;;;;;;;14.90;50.40;;;;;;5055887;28;20231;-89
2022/12/13 01:03:24;;;;;;;;;;;14.80;50.40;;;;;;5054915;28;19970;-89
2022/12/13 01:05:50;;;;;;;;;;;14.80;50.40;;;;;;5038670;28;20254;-89
2022/12/13 01:08:15;;;;;;;;;;;14.80;50.40;;;;;;5039266;28;19908;-89
2022/12/13 01:10:44;;;;;;;;;;;14.80;50.50;;;;;;5037523;28;20267;-89
2022/12/13 01:13:13;;;;;;;;;;;14.70;50.50;;;;;;5055483;28;19995;-89
2022/12/13 01:15:46;;;;;;;;;;;14.70;50.60;;;;;;5039207;28;19915;-89
2022/12/13 01:18:12;;;;;;;;;;;14.60;50.60;;;;;;5037662;28;19920;-89
2022/12/13 01:20:38;;;;;;;;;;;14.60;50.70;;;;;;5056232;28;20007;-89
2022/12/13 01:23:04;;;;;;;;;;;14.50;50.70;;;;;;5053206;28;19995;-89
2022/12/13 01:25:32;;;;;;;;;;;14.50;50.70;;;;;;5034669;28;19909;-89
2022/12/13 01:27:58;;;;;;;;;;;14.40;50.70;;;;;;5034078;28;19909;-89
2022/12/13 01:30:24;;;;;;;;;;;14.40;50.80;;;;;;5032781;28;19920;-89
2022/12/13 01:32:52;;;;;;;;;;;14.40;50.80;;;;;;5032393;28;19916;-89
2022/12/13 01:35:18;;;;;;;;;;;14.30;50.80;;;;;;5050025;28;20007;-89
2022/12/13 01:37:43;;;;;;;;;;;14.30;50.90;;;;;;5031944;28;20192;-89
2022/12/13 01:40:09;;;;;;;;;;;14.30;50.90;;;;;;5048029;28;19948;-89
2022/12/13 01:42:38;;;;;;;;;;;14.20;50.90;;;;;;5033519;28;19983;-89
2022/12/13 01:45:12;;;;;;;;;;;14.20;51.00;;;;;;5050389;28;19939;-89
2022/12/13 01:47:48;;;;;;;;;;;14.20;51.00;;;;;;5033667;28;20003;-89
2022/12/13 01:50:15;;;;;;;;;;;14.10;51.00;;;;;;5033304;28;19909;-89
2022/12/13 01:52:47;;;;;;;;;;;14.10;51.10;;;;;;5034609;28;19909;-89
2022/12/13 01:55:14;;;;;;;;;;;14.00;51.10;;;;;;5052386;28;20168;-89
2022/12/13 01:57:46;;;;;;;;;;;14.00;51.10;;;;;;5052807;28;19916;-89
2022/12/13 02:00:12;;;;;;;;;;;14.00;51.20;;;;;;5032643;28;19908;-89
2022/12/13 02:02:40;;;;;;;;;;;13.90;51.20;;;;;;5052898;28;19958;-89
2022/12/13 02:05:26;;;;;;;;;;;13.90;51.20;;;;;;5035444;28;20283;-88
2022/12/13 02:07:55;;;;;;;;;;;13.90;51.60;;;;;;5033910;28;19939;-88
2022/12/13 02:10:20;;;;;;;;;;;13.80;51.20;;;;;;5034643;28;20194;-89
2022/12/13 02:12:46;;;;;;;;;;;13.80;51.30;;;;;;5053276;28;20279;-87
2022/12/13 02:15:19;;;;;;;;;;;13.80;51.30;;;;;;5036864;28;19932;-87
2022/12/13 02:18:03;;;;;;;;;;;13.80;51.40;;;;;;5035066;28;20183;-87
2022/12/13 02:20:37;;;;;;;;;;;13.80;51.30;;;;;;5053496;28;19909;-87
2022/12/13 02:23:12;;;;;;;;;;;13.80;51.20;;;;;;5034461;28;19935;-87
2022/12/13 02:25:54;;;;;;;;;;;13.90;51.10;;;;;;5036676;28;19917;-86
2022/12/13 02:28:49;;;;;;;;;;;13.90;51.00;;;;;;5035439;28;19908;-86
2022/12/13 02:31:29;;;;;;;;;;;13.90;50.90;;;;;;5052165;28;19944;-86
2022/12/13 02:34:05;;;;;;;;;;;13.90;50.90;;;;;;5054678;28;19917;-87
2022/12/13 02:36:37;;;;;;;;;;;14.00;50.80;;;;;;5037117;28;19913;-87
2022/12/13 02:39:13;;;;;;;;;;;13.90;50.80;;;;;;5035775;28;19913;-87
2022/12/13 02:41:41;;;;;;;;;;;14.00;50.80;;;;;;5034465;28;19924;-87
2022/12/13 02:44:13;;;;;;;;;;;13.90;50.70;;;;;;5036157;28;20255;-87
2022/12/13 02:46:47;;;;;;;;;;;13.90;50.70;;;;;;5035351;28;20259;-87
2022/12/13 02:49:16;;;;;;;;;;;13.90;50.70;;;;;;5050598;28;19975;-87
2022/12/13 02:51:43;;;;;;;;;;;13.90;50.70;;;;;;5050929;28;19909;-86
2022/12/13 02:54:08;;;;;;;;;;;13.80;50.70;;;;;;5035083;28;19972;-86
2022/12/13 02:56:34;;;;;;;;;;;13.80;50.70;;;;;;5036406;28;19956;-86
2022/12/13 02:59:13;;;;;;;;;;;13.80;50.70;;;;;;5036370;28;19967;-86
2022/12/13 03:01:41;;;;;;;;;;;13.80;50.80;;;;;;5037345;28;20004;-86
2022/12/13 03:04:27;;;;;;;;;;;13.70;50.80;;;;;;5038008;28;19974;-86
2022/12/13 03:06:55;;;;;;;;;;;13.70;50.80;;;;;;5054953;28;19908;-86
2022/12/13 03:09:35;;;;;;;;;;;13.70;50.80;;;;;;5037946;28;19912;-86
2022/12/13 03:15:08;;;;;;;;;;;13.60;50.80;;;;;;5057238;28;20341;-86
2022/12/13 03:17:36;;;;;;;;;;;13.50;50.80;;;;;;5028555;28;20001;-86
2022/12/13 03:20:08;;;;;;;;;;;13.50;50.90;;;;;;5038335;28;20330;-86
2022/12/13 03:22:34;;;;;;;;;;;13.50;50.90;;;;;;5039465;28;19913;-86
2022/12/13 03:25:00;;;;;;;;;;;13.50;50.90;;;;;;5037808;28;19908;-86
2022/12/13 03:27:28;;;;;;;;;;;13.40;50.90;;;;;;5054561;28;20260;-86
2022/12/13 03:29:57;;;;;;;;;;;13.40;50.90;;;;;;5036716;28;19920;-86
2022/12/13 03:32:23;;;;;;;;;;;13.40;50.90;;;;;;5034879;28;20309;-86
2022/12/13 03:34:48;;;;;;;;;;;13.40;50.90;;;;;;5054615;28;19920;-86
2022/12/13 03:37:14;;;;;;;;;;;13.50;50.80;;;;;;5037452;28;20290;-86
2022/12/13 03:39:39;;;;;;;;;;;13.50;50.80;;;;;;5038367;28;19937;-86
2022/12/13 03:42:05;;;;;;;;;;;13.50;50.80;;;;;;5040741;28;19909;-86
2022/12/13 03:44:30;;;;;;;;;;;13.50;50.70;;;;;;5040835;28;19908;-86
2022/12/13 03:46:56;;;;;;;;;;;13.40;50.70;;;;;;5057656;28;19913;-87
2022/12/13 03:49:21;;;;;;;;;;;13.40;50.70;;;;;;5039575;28;19912;-87
2022/12/13 03:51:47;;;;;;;;;;;13.40;50.70;;;;;;5055532;28;19909;-86
2022/12/13 03:54:12;;;;;;;;;;;13.30;50.70;;;;;;5053594;28;19912;-86
2022/12/13 03:56:38;;;;;;;;;;;13.30;50.80;;;;;;5037488;28;20199;-86
2022/12/13 03:59:07;;;;;;;;;;;13.20;50.70;;;;;;5037087;28;20007;-86
2022/12/13 04:01:36;;;;;;;;;;;13.20;50.80;;;;;;5037519;28;20306;-86
2022/12/13 04:04:04;;;;;;;;;;;13.20;50.90;;;;;;5036789;28;19916;-86
2022/12/13 04:06:30;;;;;;;;;;;13.10;50.80;;;;;;5053749;28;19909;-86
2022/12/13 04:08:55;;;;;;;;;;;13.10;50.90;;;;;;5037577;28;19975;-86
2022/12/13 04:14:05;;;;;;;;;;;14.40;50.00;;;;;;5056503;28;19935;-86
2022/12/13 04:16:30;;;;;;;;;;;14.90;48.70;;;;;;5055366;28;19912;-86
2022/12/13 04:18:58;;;;;;;;;;;15.20;48.20;;;;;;5056380;28;20446;-86
2022/12/13 04:21:24;;;;;;;;;;;15.40;47.90;;;;;;5036671;28;19928;-86
2022/12/13 04:23:49;;;;;;;;;;;15.60;47.70;;;;;;5054547;28;19909;-86
2022/12/13 04:26:15;;;;;;;;;;;15.80;47.40;;;;;;5036766;28;20393;-86
2022/12/13 04:28:40;;;;;;;;;;;16.10;47.10;;;;;;5053862;28;19909;-86
2022/12/13 04:31:09;;;;;;;;;;;16.40;46.80;;;;;;5052908;28;19908;-86
2022/12/13 04:33:34;;;;;;;;;;;16.70;46.40;;;;;;5037518;28;20230;-86
2022/12/13 04:36:00;;;;;;;;;;;16.90;46.00;;;;;;5054711;28;19917;-86
2022/12/13 04:38:25;;;;;;;;;;;17.10;45.90;;;;;;5054010;28;19975;-86
2022/12/13 04:41:02;;;;;;;;;;;17.20;45.70;;;;;;5054196;28;19916;-86
2022/12/13 04:43:30;;;;;;;;;;;17.40;45.40;;;;;;5055014;28;19940;-86
2022/12/13 04:45:58;;;;;;;;;;;17.70;45.10;;;;;;5056070;28;19923;-86
2022/12/13 04:48:24;;;;;;;;;;;17.80;44.90;;;;;;5038429;28;19909;-86
2022/12/13 04:50:50;;;;;;;;;;;18.00;44.70;;;;;;5038679;28;19916;-86
2022/12/13 04:53:18;;;;;;;;;;;18.00;44.60;;;;;;5038444;28;20144;-86
2022/12/13 04:55:47;;;;;;;;;;;18.10;44.50;;;;;;5037987;28;19982;-86
2022/12/13 04:58:15;;;;;;;;;;;18.10;44.60;;;;;;5056099;28;20166;-86
2022/12/13 05:00:44;;;;;;;;;;;18.10;44.30;;;;;;5054496;28;20007;-86
2022/12/13 05:03:10;;;;;;;;;;;18.20;44.30;;;;;;5036532;28;20270;-86
2022/12/13 05:05:39;;;;;;;;;;;18.10;44.20;;;;;;5034442;28;20007;-86
2022/12/13 05:08:05;;;;;;;;;;;18.10;44.20;;;;;;5035869;28;19912;-86
2022/12/13 05:10:30;;;;;;;;;;;18.00;44.30;;;;;;5034569;28;19920;-86
2022/12/13 05:13:01;;;;;;;;;;;17.80;44.40;;;;;;5052351;28;19912;-86
2022/12/13 05:15:26;;;;;;;;;;;17.70;44.60;;;;;;5035501;28;19923;-86
2022/12/13 05:18:05;;;;;;;;;;;17.50;44.70;;;;;;5036064;28;20190;-86
2022/12/13 05:20:34;;;;;;;;;;;17.30;44.90;;;;;;5035391;28;19973;-86
2022/12/13 05:23:00;;;;;;;;;;;17.10;45.00;;;;;;5033779;28;20122;-86
2022/12/13 05:25:25;;;;;;;;;;;16.90;45.20;;;;;;5034698;28;19920;-86
2022/12/13 05:27:51;;;;;;;;;;;16.70;45.40;;;;;;5034092;28;19908;-86
2022/12/13 05:30:20;;;;;;;;;;;16.50;45.60;;;;;;5033712;28;19909;-86
2022/12/13 05:32:49;;;;;;;;;;;16.30;45.80;;;;;;5034505;28;20195;-86
2022/12/13 05:35:17;;;;;;;;;;;16.20;46.00;;;;;;5031211;28;20267;-86
2022/12/13 05:37:43;;;;;;;;;;;16.00;46.30;;;;;;5032246;28;20014;-86
2022/12/13 05:40:09;;;;;;;;;;;15.80;46.40;;;;;;5033056;28;20051;-86
2022/12/13 05:42:38;;;;;;;;;;;15.70;46.50;;;;;;5050298;28;19913;-86
2022/12/13 05:45:07;;;;;;;;;;;15.60;46.60;;;;;;5033540;28;19908;-86
2022/12/13 05:47:36;;;;;;;;;;;15.60;46.60;;;;;;5033645;28;20211;-86
2022/12/13 05:50:02;;;;;;;;;;;15.70;46.50;;;;;;5034480;28;19959;-86
2022/12/13 05:52:27;;;;;;;;;;;16.00;46.20;;;;;;5033002;28;19956;-85
2022/12/13 05:54:54;;;;;;;;;;;16.40;45.70;;;;;;5031209;28;19924;-86
2022/12/13 05:57:19;;;;;;;;;;;16.70;45.30;;;;;;5033642;28;19919;-86
2022/12/13 05:59:45;;;;;;;;;;;17.00;45.00;;;;;;5033346;28;20280;-86
2022/12/13 06:02:10;;;;;;;;;;;17.20;44.80;;;;;;5034607;28;20032;-87
2022/12/13 06:04:36;;;;;;;;;;;17.30;44.70;;;;;;5030770;28;19970;-87
2022/12/13 06:07:01;;;;;;;;;;;17.40;45.00;;;;;;5050317;28;19916;-87
2022/12/13 06:09:27;;;;;;;;;;;17.50;44.40;;;;;;5031802;28;19909;-87
2022/12/13 06:11:52;;;;;;;;;;;17.70;44.20;;;;;;5032179;28;20007;-87
2022/12/13 06:14:18;;;;;;;;;;;17.80;44.10;;;;;;5030846;28;19962;-87
2022/12/13 06:16:47;;;;;;;;;;;17.90;43.90;;;;;;5030678;28;20028;-87
2022/12/13 06:19:15;;;;;;;;;;;18.00;43.70;;;;;;5047280;28;19945;-87
2022/12/13 06:21:41;;;;;;;;;;;18.00;43.70;;;;;;5028723;28;20009;-87
2022/12/13 06:24:07;;;;;;;;;;;18.00;43.60;;;;;;5030704;28;20232;-87
2022/12/13 06:26:33;;;;;;;;;;;18.00;43.50;;;;;;5030765;28;19908;-87
2022/12/13 06:28:58;;;;;;;;;;;18.00;43.50;;;;;;5030081;28;19909;-87
2022/12/13 06:31:27;;;;;;;;;;;17.90;43.50;;;;;;5029055;28;19913;-87
2022/12/13 06:33:52;;;;;;;;;;;17.90;43.50;;;;;;5028694;28;19917;-87
2022/12/13 06:36:18;;;;;;;;;;;17.70;43.60;;;;;;5027445;28;19912;-86
2022/12/13 06:38:43;;;;;;;;;;;17.60;43.80;;;;;;5045409;28;19909;-87
2022/12/13 06:41:13;;;;;;;;;;;17.40;44.00;;;;;;5041243;28;19920;-87
2022/12/13 06:43:45;;;;;;;;;;;17.20;44.20;;;;;;5029111;28;19909;-87
2022/12/13 06:46:14;;;;;;;;;;;17.00;44.40;;;;;;5030102;28;20349;-87
2022/12/13 06:48:43;;;;;;;;;;;16.90;44.60;;;;;;5032235;28;19908;-87
2022/12/13 06:51:09;;;;;;;;;;;16.70;44.70;;;;;;5029243;28;19909;-87
2022/12/13 06:53:39;;;;;;;;;;;16.60;44.90;;;;;;5030562;28;19923;-87
2022/12/13 06:56:09;;;;;;;;;;;16.40;45.00;;;;;;5048463;28;20271;-87
2022/12/13 06:58:38;;;;;;;;;;;16.30;45.10;;;;;;5029797;28;20433;-87
2022/12/13 07:01:05;;;;;;;;;;;16.30;45.10;;;;;;5033303;28;19905;-87
2022/12/13 07:03:34;;;;;;;;;;;16.30;45.10;;;;;;5048598;28;20155;-87
2022/12/13 07:06:02;;;;;;;;;;;16.40;45.00;;;;;;5050530;28;19920;-87
2022/12/13 07:08:28;;;;;;;;;;;16.50;44.80;;;;;;5033815;28;19915;-87
2022/12/13 07:10:56;;;;;;;;;;;16.80;45.00;;;;;;5048962;28;19909;-87
2022/12/13 07:13:25;;;;;;;;;;;17.10;44.20;;;;;;5033590;28;20007;-86
2022/12/13 07:15:54;;;;;;;;;;;17.60;43.60;;;;;;5034212;28;19909;-87
2022/12/13 07:18:19;;;;;;;;;;;18.00;43.10;;;;;;5034447;28;19916;-87
2022/12/13 07:20:45;;;;;;;;;;;18.20;42.90;;;;;;5047786;28;20259;-87
2022/12/13 07:23:11;;;;;;;;;;;18.20;42.70;;;;;;5049692;28;19913;-87
2022/12/13 07:25:39;;;;;;;;;;;18.40;42.70;;;;;;5030829;28;19909;-87
2022/12/13 07:28:06;;;;;;;;;;;18.40;42.50;;;;;;5030486;28;19927;-87
2022/12/13 07:30:33;;;;;;;;;;;18.50;42.50;;;;;;5051128;28;19973;-87
2022/12/13 07:33:02;;;;;;;;;;;18.40;42.50;;;;;;5033116;28;19969;-88
2022/12/13 07:35:31;;;;;;;;;;;18.40;42.60;;;;;;5031885;28;19916;-88
2022/12/13 07:37:57;;;;;;;;;;;18.30;42.60;;;;;;5032916;28;19919;-88
2022/12/13 07:40:25;;;;;;;;;;;18.20;42.70;;;;;;5049359;28;19909;-88
2022/12/13 07:42:52;;;;;;;;;;;18.10;42.80;;;;;;5032121;28;19909;-87
2022/12/13 07:45:20;;;;;;;;;;;18.00;42.90;;;;;;5050087;28;19909;-88
2022/12/13 07:47:49;;;;;;;;;;;17.90;43.00;;;;;;5049186;28;20008;-88
2022/12/13 07:50:19;;;;;;;;;;;17.80;43.10;;;;;;5035252;28;19916;-88
2022/12/13 07:52:48;;;;;;;;;;;17.60;43.40;;;;;;5033550;28;19989;-88
2022/12/13 07:55:16;;;;;;;;;;;17.40;43.60;;;;;;5048584;28;20165;-88
2022/12/13 07:57:44;;;;;;;;;;;17.20;43.80;;;;;;5049922;28;20115;-88
2022/12/13 08:00:10;;;;;;;;;;;17.10;44.00;;;;;;5048981;28;19956;-88
2022/12/13 08:02:36;;;;;;;;;;;16.80;44.20;;;;;;5032379;28;19956;-88
2022/12/13 08:05:04;;;;;;;;;;;16.60;44.40;;;;;;5033486;28;20016;-88
2022/12/13 08:07:33;;;;;;;;;;;16.40;44.50;;;;;;5031708;28;19944;-88
2022/12/13 08:10:01;;;;;;;;;;;16.20;44.70;;;;;;5031653;28;19927;-88
2022/12/13 08:12:30;;;;;;;;;;;16.10;44.90;;;;;;5031529;28;19916;-88
2022/12/13 08:14:58;;;;;;;;;;;16.10;45.00;;;;;;5030291;28;19987;-88
2022/12/13 08:17:27;;;;;;;;;;;16.10;44.90;;;;;;5029896;28;19913;-88
2022/12/13 08:19:55;;;;;;;;;;;16.30;44.70;;;;;;5045431;28;20101;-88
2022/12/13 08:22:27;;;;;;;;;;;16.90;44.10;;;;;;5031332;28;20383;-88
2022/12/13 08:24:53;;;;;;;;;;;17.50;43.10;;;;;;5031078;28;19909;-88
2022/12/13 08:27:19;;;;;;;;;;;17.80;43.10;;;;;;5032200;28;20030;-88
2022/12/13 08:29:47;;;;;;;;;;;17.80;43.00;;;;;;5046615;28;19909;-88
2022/12/13 08:32:16;;;;;;;;;;;17.80;43.10;;;;;;5047194;28;20132;-87
2022/12/13 08:34:42;;;;;;;;;;;17.80;43.10;;;;;;5032373;28;20170;-88
2022/12/13 08:37:07;;;;;;;;;;;17.80;43.10;;;;;;5031964;28;20500;-87
2022/12/13 08:39:37;;;;;;;;;;;17.90;43.10;;;;;;5030117;28;19953;-88
2022/12/13 08:42:03;;;;;;;;;;;17.90;43.00;;;;;;5032150;28;20271;-88
2022/12/13 08:44:29;;;;;;;;;;;18.10;42.90;;;;;;5031511;28;19909;-88
2022/12/13 08:46:55;;;;;;;;;;;18.20;42.80;;;;;;5032017;28;19971;-88
2022/12/13 08:49:23;;;;;;;;;;;18.50;42.70;;;;;;5050651;28;19921;-88
2022/12/13 08:51:49;;;;;;;;;;;18.50;42.60;;;;;;5032302;28;20125;-88
2022/12/13 08:54:14;;;;;;;;;;;18.70;42.40;;;;;;5033336;28;19931;-88
2022/12/13 08:56:40;;;;;;;;;;;19.00;42.20;;;;;;5031964;28;20023;-88
2022/12/13 08:59:05;;;;;;;;;;;19.40;41.90;;;;;;5051129;28;19971;-88
2022/12/13 09:01:31;;;;;;;;;;;19.70;41.60;;;;;;5029945;28;19948;-88
2022/12/13 09:03:57;;;;;;;;;;;20.50;41.20;;;;;;5028242;28;20160;-88
2022/12/13 09:06:23;;;;;;;;;;;21.20;40.60;;;;;;5031228;28;19924;-88
2022/12/13 09:08:48;;;;;;;;;;;21.60;40.00;;;;;;5030985;28;19925;-88
2022/12/13 09:11:14;;;;;;;;;;;21.90;39.60;;;;;;5030311;28;19909;-88
2022/12/13 09:13:40;;;;;;;;;;;22.00;39.40;;;;;;5028231;28;19908;-87
2022/12/13 09:16:12;;;;;;;;;;;22.10;39.20;;;;;;5026179;28;20144;-88
2022/12/13 09:18:38;;;;;;;;;;;22.00;39.20;;;;;;5029291;28;20102;-88
2022/12/13 09:21:11;;;;;;;;;;;21.70;39.10;;;;;;5047949;28;20015;-88
2022/12/13 09:23:42;;;;;;;;;;;21.30;39.50;;;;;;5029068;28;19909;-88
2022/12/13 09:26:09;;;;;;;;;;;20.90;39.30;;;;;;5031813;28;20301;-88
2022/12/13 09:28:38;;;;;;;;;;;20.60;39.50;;;;;;5049462;28;19948;-88
2022/12/13 09:31:07;;;;;;;;;;;20.40;39.70;;;;;;5047656;28;19909;-88
2022/12/13 09:33:32;;;;;;;;;;;20.20;39.90;;;;;;5046288;28;19916;-88
2022/12/13 09:35:58;;;;;;;;;;;20.10;40.00;;;;;;5046382;28;20086;-88
2022/12/13 09:38:23;;;;;;;;;;;20.00;40.10;;;;;;5033207;28;19935;-88
2022/12/13 09:40:50;;;;;;;;;;;19.90;40.10;;;;;;5030047;28;19952;-88
2022/12/13 09:43:39;;;;;;;;;;;19.90;40.20;;;;;;5030934;28;19948;-88
2022/12/13 09:46:10;;;;;;;;;;;19.90;40.10;;;;;;5021034;28;20404;-88
2022/12/13 09:48:39;;;;;;;;;;;20.00;40.00;;;;;;5030499;28;19913;-88
2022/12/13 09:51:08;;;;;;;;;;;20.00;40.00;;;;;;5032005;28;19959;-88
2022/12/13 09:53:33;;;;;;;;;;;20.10;40.00;;;;;;5030662;28;19975;-88
2022/12/13 09:55:59;;;;;;;;;;;20.10;40.30;;;;;;5030270;28;20183;-88
2022/12/13 09:58:30;;;;;;;;;;;20.20;39.90;;;;;;5029667;28;19956;-88
2022/12/13 10:00:59;;;;;;;;;;;20.20;39.90;;;;;;5047872;28;20003;-88
2022/12/13 10:03:28;;;;;;;;;;;20.10;39.90;;;;;;5044698;28;20426;-88
2022/12/13 10:06:11;;;;;;;;;;;20.10;40.00;;;;;;5046306;28;19909;-88
2022/12/13 10:08:43;;;;;;;;;;;20.00;40.00;;;;;;5030520;28;19909;-88
2022/12/13 10:11:13;;;;;;;;;;;20.00;40.10;;;;;;5028628;28;19909;-88
2022/12/13 10:13:44;;;;;;;;;;;19.90;40.10;;;;;;5047945;28;19913;-88
2022/12/13 10:16:31;;;;;;;;;;;19.90;40.20;;;;;;5029700;28;20157;-88
2022/12/13 10:19:00;;;;;;;;;;;19.90;40.20;;;;;;5046103;28;19909;-88
2022/12/13 10:21:40;;;;;;;;;;;19.80;40.30;;;;;;5029347;28;19913;-88
2022/12/13 10:24:12;;;;;;;;;;;19.70;40.40;;;;;;5029717;28;19913;-88
2022/12/13 10:26:38;;;;;;;;;;;19.70;40.40;;;;;;5027978;28;20263;-88
2022/12/13 10:29:07;;;;;;;;;;;19.70;40.50;;;;;;5026380;28;20348;-88
2022/12/13 10:31:43;;;;;;;;;;;19.70;40.60;;;;;;5045586;28;19913;-88
2022/12/13 10:34:26;;;;;;;;;;;19.60;40.60;;;;;;5028976;28;20108;-88
2022/12/13 10:36:55;;;;;;;;;;;19.50;40.60;;;;;;5047568;28;19920;-88
2022/12/13 10:39:36;;;;;;;;;;;19.50;40.70;;;;;;5030442;28;19909;-88
2022/12/13 10:42:03;;;;;;;;;;;19.40;40.70;;;;;;5030272;28;20160;-88
2022/12/13 10:44:28;;;;;;;;;;;19.30;40.70;;;;;;5031085;28;20093;-88
2022/12/13 10:47:15;;;;;;;;;;;19.20;40.80;;;;;;5046399;28;19963;-88
2022/12/13 10:49:57;;;;;;;;;;;19.20;40.90;;;;;;5031312;28;20400;-88
2022/12/13 10:52:30;;;;;;;;;;;19.10;41.00;;;;;;5030629;28;19909;-88
2022/12/13 10:54:58;;;;;;;;;;;19.10;41.00;;;;;;5028787;28;20145;-88
2022/12/13 10:57:24;;;;;;;;;;;19.00;40.80;;;;;;5049765;28;19913;-88
2022/12/13 10:59:50;;;;;;;;;;;19.00;41.10;;;;;;5053450;28;19920;-88
2022/12/13 11:02:36;;;;;;;;;;;18.90;41.20;;;;;;5050181;28;19908;-88
2022/12/13 11:05:17;;;;;;;;;;;18.90;41.20;;;;;;5033560;28;19916;-88
2022/12/13 11:07:45;;;;;;;;;;;18.90;40.90;;;;;;5028866;28;19916;-88
2022/12/13 11:10:27;;;;;;;;;;;18.90;41.20;;;;;;5031307;28;19908;-88
2022/12/13 11:12:58;;;;;;;;;;;18.80;41.20;;;;;;5031188;28;19909;-88
2022/12/13 11:15:28;;;;;;;;;;;18.80;41.20;;;;;;5030994;28;20214;-88
2022/12/13 11:17:55;;;;;;;;;;;18.80;41.20;;;;;;5045109;28;19913;-88
2022/12/13 11:20:41;;;;;;;;;;;18.80;41.20;;;;;;5029581;28;19916;-88
2022/12/13 11:23:18;;;;;;;;;;;18.80;40.90;;;;;;5030147;28;20298;-88
2022/12/13 11:25:44;;;;;;;;;;;18.80;41.10;;;;;;5028379;28;19919;-88
2022/12/13 11:28:19;;;;;;;;;;;18.70;41.20;;;;;;5046380;28;19917;-88
2022/12/13 11:31:20;;;;;;;;;;;18.60;41.60;;;;;;5027308;28;20234;-88
2022/12/13 11:33:58;;;;;;;;;;;18.40;41.40;;;;;;4963474;28;20079;-88
2022/12/13 11:36:30;;;;;;;;;;;18.20;41.80;;;;;;5036751;28;20210;-88
2022/12/13 11:39:14;;;;;;;;;;;18.00;42.50;;;;;;5047505;28;19924;-88
2022/12/13 11:41:43;;;;;;;;;;;17.80;42.40;;;;;;5049455;28;19913;-89
2022/12/13 11:44:08;;;;;;;;;;;17.60;42.60;;;;;;5030772;28;20223;-89
2022/12/13 11:46:40;;;;;;;;;;;17.40;42.80;;;;;;5033349;28;20163;-89
2022/12/13 11:49:16;;;;;;;;;;;17.30;42.90;;;;;;5032378;28;19910;-88
2022/12/13 11:51:55;;;;;;;;;;;17.30;43.00;;;;;;5029503;28;20200;-88
2022/12/13 11:54:21;;;;;;;;;;;17.40;42.80;;;;;;5032608;28;19986;-89
2022/12/13 11:56:46;;;;;;;;;;;17.70;42.50;;;;;;5028694;28;19912;-89
2022/12/13 11:59:32;;;;;;;;;;;18.00;42.00;;;;;;5045142;28;20109;-89
2022/12/13 12:02:06;;;;;;;;;;;18.40;41.60;;;;;;5045351;28;19919;-88
2022/12/13 12:04:34;;;;;;;;;;;18.70;41.30;;;;;;5047584;28;20338;-88
2022/12/13 12:07:20;;;;;;;;;;;19.00;41.00;;;;;;5046392;28;19909;-89
2022/12/13 12:09:56;;;;;;;;;;;19.20;40.80;;;;;;5044430;28;19908;-88
2022/12/13 12:12:24;;;;;;;;;;;19.30;40.60;;;;;;5043664;28;20000;-88
2022/12/13 12:15:13;;;;;;;;;;;19.40;40.50;;;;;;5044467;28;19999;-89
2022/12/13 12:17:39;;;;;;;;;;;19.50;40.40;;;;;;4990039;28;20202;-89
2022/12/13 12:20:05;;;;;;;;;;;19.50;40.30;;;;;;5047054;28;20283;-88
2022/12/13 12:22:37;;;;;;;;;;;19.50;40.30;;;;;;5048910;28;19908;-88
2022/12/13 12:25:21;;;;;;;;;;;19.50;40.30;;;;;;5031427;28;20111;-88
2022/12/13 12:28:05;;;;;;;;;;;19.40;40.30;;;;;;5030660;28;19912;-88
2022/12/13 12:30:40;;;;;;;;;;;19.40;40.30;;;;;;5049115;28;19920;-88
2022/12/13 12:33:24;;;;;;;;;;;19.30;40.40;;;;;;5049807;28;19913;-88
2022/12/13 12:36:02;;;;;;;;;;;19.30;40.40;;;;;;5046812;28;20437;-89
2022/12/13 12:38:40;;;;;;;;;;;19.20;40.60;;;;;;5031373;28;20180;-88
2022/12/13 12:41:24;;;;;;;;;;;19.00;40.70;;;;;;5028212;28;19908;-89
2022/12/13 12:44:03;;;;;;;;;;;18.80;40.80;;;;;;5046126;28;19909;-89
2022/12/13 12:46:47;;;;;;;;;;;18.70;41.00;;;;;;5028560;28;19920;-89
2022/12/13 12:49:39;;;;;;;;;;;18.50;41.20;;;;;;5045466;28;19909;-88
2022/12/13 12:52:05;;;;;;;;;;;18.30;41.30;;;;;;5045098;28;20164;-89
2022/12/13 12:54:50;;;;;;;;;;;18.20;41.60;;;;;;5029889;28;20307;-88
2022/12/13 12:57:38;;;;;;;;;;;18.00;41.70;;;;;;5046334;28;19952;-89
2022/12/13 13:00:03;;;;;;;;;;;17.80;41.90;;;;;;5044860;28;19994;-89
2022/12/13 13:02:41;;;;;;;;;;;17.70;42.10;;;;;;5027431;28;20268;-88
2022/12/13 13:05:38;;;;;;;;;;;17.60;42.20;;;;;;5028441;28;20111;-89
2022/12/13 13:08:04;;;;;;;;;;;17.50;42.30;;;;;;4957893;28;19997;-89
2022/12/13 13:10:32;;;;;;;;;;;17.50;42.80;;;;;;5027262;28;20241;-89
2022/12/13 13:12:58;;;;;;;;;;;17.50;42.30;;;;;;5026045;28;19909;-89
2022/12/13 13:15:29;;;;;;;;;;;17.60;42.20;;;;;;5029082;28;19908;-88
2022/12/13 13:17:55;;;;;;;;;;;17.70;42.10;;;;;;5029335;28;19913;-88
2022/12/13 13:20:22;;;;;;;;;;;17.90;41.90;;;;;;5028968;28;19966;-89
2022/12/13 13:22:48;;;;;;;;;;;18.10;41.70;;;;;;5028617;28;19909;-88
2022/12/13 13:25:14;;;;;;;;;;;18.30;41.50;;;;;;5027993;28;20089;-89
2022/12/13 13:27:40;;;;;;;;;;;18.50;41.30;;;;;;5027558;28;19935;-89
2022/12/13 13:30:14;;;;;;;;;;;18.60;41.20;;;;;;5027795;28;19917;-89
2022/12/13 13:32:40;;;;;;;;;;;18.70;41.00;;;;;;5028207;28;20185;-89
2022/12/13 13:35:27;;;;;;;;;;;18.80;41.00;;;;;;5043723;28;20029;-89
2022/12/13 13:37:56;;;;;;;;;;;18.80;41.00;;;;;;5045364;28;19920;-89
2022/12/13 13:40:26;;;;;;;;;;;18.80;41.00;;;;;;5044470;28;20290;-89
2022/12/13 13:43:01;;;;;;;;;;;18.80;40.90;;;;;;5025296;28;20155;-89
2022/12/13 13:45:27;;;;;;;;;;;18.90;40.90;;;;;;5026824;28;19919;-89
2022/12/13 13:48:01;;;;;;;;;;;18.90;40.90;;;;;;5026914;28;20153;-88
2022/12/13 13:50:34;;;;;;;;;;;18.80;40.90;;;;;;5028455;28;20007;-89
2022/12/13 13:53:09;;;;;;;;;;;18.70;41.00;;;;;;5027004;28;19988;-88
2022/12/13 13:55:41;;;;;;;;;;;18.60;41.10;;;;;;5028541;28;20376;-88
2022/12/13 13:58:13;;;;;;;;;;;18.50;41.20;;;;;;5026982;28;19923;-89
2022/12/13 14:00:58;;;;;;;;;;;18.50;41.30;;;;;;5026776;28;20190;-89
2022/12/13 14:03:33;;;;;;;;;;;18.40;41.30;;;;;;5043800;28;20022;-89
2022/12/13 14:06:04;;;;;;;;;;;18.20;41.40;;;;;;5028418;28;20080;-89
2022/12/13 14:08:59;;;;;;;;;;;18.20;41.60;;;;;;5028053;28;19936;-88
2022/12/13 14:11:47;;;;;;;;;;;18.00;41.60;;;;;;5011246;28;19944;-89
2022/12/13 14:14:31;;;;;;;;;;;17.90;41.80;;;;;;5045944;28;20191;-89
2022/12/13 14:17:06;;;;;;;;;;;17.80;42.00;;;;;;5045777;28;20007;-89
2022/12/13 14:19:54;;;;;;;;;;;17.70;42.20;;;;;;5028707;28;19909;-88
2022/12/13 14:22:38;;;;;;;;;;;17.60;42.40;;;;;;5043693;28;20275;-89
2022/12/13 14:25:07;;;;;;;;;;;17.50;42.50;;;;;;5042970;28;19908;-89
2022/12/13 14:27:39;;;;;;;;;;;17.40;42.60;;;;;;5027977;28;19909;-89
2022/12/13 14:30:05;;;;;;;;;;;17.40;42.60;;;;;;5025455;28;20290;-89
2022/12/13 14:32:35;;;;;;;;;;;17.30;42.70;;;;;;5024307;28;19915;-88
2022/12/13 14:35:01;;;;;;;;;;;17.30;42.70;;;;;;5041752;28;20240;-89
2022/12/13 14:37:31;;;;;;;;;;;17.30;42.80;;;;;;5023872;28;20082;-89
2022/12/13 14:40:00;;;;;;;;;;;17.20;42.80;;;;;;5026105;28;19909;-89